Time;durP1;ratioP1;P1;durP2;ratioP2;P2;SDS_P1;SDS_P2;PMS_P1;PMS_P2;Temp;Humidity;BMP_temperature;BMP_pressure;BME280_temperature;BME280_humidity;BME280_pressure;Samples;Min_cycle;Max_cycle;Signal;HPM_P1;HPM_P2
2023/04/22 00:01:49;;;;;;;;;27.67;23.00;;;;;12.08;46.00;100203.91;5076499;27;46623;-70
2023/04/22 00:04:14;;;;;;;;;24.33;22.33;;;;;12.10;46.33;100208.06;5059767;28;45838;-70
2023/04/22 00:06:39;;;;;;;;;24.00;21.67;;;;;12.16;46.27;100211.88;5078793;28;45287;-69
2023/04/22 00:09:05;;;;;;;;;24.67;22.33;;;;;11.67;46.71;100174.56;5077852;27;45738;-69
2023/04/22 00:11:30;;;;;;;;;21.67;21.67;;;;;11.99;46.33;100202.22;5077705;27;45304;-69
2023/04/22 00:13:56;;;;;;;;;26.67;22.67;;;;;11.98;45.97;100195.22;5077883;28;45747;-70
2023/04/22 00:16:21;;;;;;;;;23.33;21.33;;;;;10.27;45.91;99915.66;5077983;28;45521;-71
2023/04/22 00:18:47;;;;;;;;;24.00;18.67;;;;;12.13;46.03;100223.72;5077134;28;45680;-69
2023/04/22 00:21:12;;;;;;;;;22.33;20.00;;;;;11.43;46.25;100113.31;5077712;27;45458;-69
2023/04/22 00:23:37;;;;;;;;;23.00;23.00;;;;;11.93;46.30;100200.22;5077274;28;45158;-72
2023/04/22 00:26:03;;;;;;;;;24.00;24.00;;;;;12.03;46.10;100212.41;5077565;28;46216;-70
2023/04/22 00:28:28;;;;;;;;;25.00;23.67;;;;;12.04;45.91;100213.22;5059305;28;48649;-71
2023/04/22 00:30:54;;;;;;;;;20.33;16.67;;;;;11.89;46.07;100205.06;5058890;28;54292;-70
2023/04/22 00:33:19;;;;;;;;;26.33;22.67;;;;;11.86;46.15;100216.06;5077768;28;45348;-70
2023/04/22 00:35:45;;;;;;;;;22.33;22.00;;;;;11.90;46.26;100217.38;5077493;28;45492;-70
2023/04/22 00:38:10;;;;;;;;;20.33;20.00;;;;;11.88;46.90;100219.38;5077243;28;46223;-70
2023/04/22 00:40:36;;;;;;;;;27.33;24.33;;;;;11.23;46.63;100110.94;5077167;27;45465;-70
2023/04/22 00:43:02;;;;;;;;;22.67;21.33;;;;;11.56;46.92;100182.84;5077363;27;45402;-71
2023/04/22 00:45:27;;;;;;;;;25.33;24.67;;;;;11.66;47.33;100231.47;5077565;27;45646;-71
2023/04/22 00:47:53;;;;;;;;;24.00;24.00;;;;;11.72;47.36;100220.16;5058789;28;47380;-70
2023/04/22 00:50:18;;;;;;;;;21.33;21.33;;;;;11.68;47.68;100226.81;5077203;28;45355;-70
2023/04/22 00:52:43;;;;;;;;;26.00;25.00;;;;;10.87;47.43;100089.06;5077424;28;45610;-71
2023/04/22 00:55:10;;;;;;;;;22.33;21.67;;;;;11.53;47.61;100204.47;5076978;28;45386;-71
2023/04/22 00:57:37;;;;;;;;;33.00;27.67;;;;;11.69;48.07;100219.66;5077169;28;45580;-71
2023/04/22 01:00:05;;;;;;;;;30.00;23.67;;;;;11.59;47.84;100209.13;5076687;27;45369;-69
2023/04/22 01:02:30;;;;;;;;;25.67;22.33;;;;;11.57;47.93;100196.00;5077019;27;45253;-70
2023/04/22 01:04:56;;;;;;;;;26.00;23.67;;;;;11.63;48.31;100199.84;5077096;27;45384;-71
2023/04/22 01:07:22;;;;;;;;;37.33;33.00;;;;;11.11;48.26;100122.06;5080214;27;46698;-69
2023/04/22 01:09:47;;;;;;;;;29.00;27.33;;;;;11.41;48.78;100171.16;5080392;28;45372;-71
2023/04/22 01:12:13;;;;;;;;;29.00;25.67;;;;;11.21;48.67;100158.19;5080719;28;45435;-70
2023/04/22 01:14:38;;;;;;;;;25.33;24.00;;;;;10.56;48.42;100024.16;5080903;27;45537;-71
2023/04/22 01:17:05;;;;;;;;;28.67;28.00;;;;;11.48;48.32;100185.50;5080469;27;45541;-69
2023/04/22 01:19:31;;;;;;;;;29.00;29.00;;;;;11.39;48.29;100150.03;5080373;27;45484;-70
2023/04/22 01:22:00;;;;;;;;;26.00;21.33;;;;;11.42;48.58;100159.56;5080261;28;45476;-70
2023/04/22 01:24:26;;;;;;;;;25.00;23.00;;;;;11.22;48.52;100138.56;5080236;27;45349;-70
2023/04/22 01:26:52;;;;;;;;;23.33;23.00;;;;;11.47;48.87;100166.03;5080223;28;45774;-70
2023/04/22 01:29:18;;;;;;;;;20.00;18.33;;;;;10.93;48.88;100068.97;5080593;27;45340;-70
2023/04/22 01:31:43;;;;;;;;;19.00;16.67;;;;;11.53;47.89;100151.22;5061755;28;45491;-70
2023/04/22 01:34:08;;;;;;;;;24.67;24.33;;;;;11.30;48.08;100108.44;5080389;28;45376;-70
2023/04/22 01:36:34;;;;;;;;;25.33;23.33;;;;;11.45;48.16;100116.63;5080091;27;45527;-69
2023/04/22 01:38:59;;;;;;;;;24.33;22.33;;;;;11.64;47.62;100148.25;5061731;28;45446;-69
2023/04/22 01:41:25;;;;;;;;;21.67;20.67;;;;;11.70;47.91;100150.25;5079855;28;45498;-73
2023/04/22 01:43:52;;;;;;;;;22.67;22.00;;;;;11.72;47.43;100150.91;5080333;28;45374;-70
2023/04/22 01:46:17;;;;;;;;;19.67;19.00;;;;;11.77;47.38;100153.91;5080066;27;46729;-70
2023/04/22 01:48:43;;;;;;;;;18.33;18.33;;;;;11.80;47.61;100139.44;5079710;28;45383;-70
2023/04/22 01:51:08;;;;;;;;;22.00;18.67;;;;;11.80;47.53;100137.63;5080282;28;45436;-70
2023/04/22 01:53:35;;;;;;;;;24.00;22.67;;;;;11.80;47.30;100142.13;5080343;28;45478;-69
2023/04/22 01:56:01;;;;;;;;;23.67;22.00;;;;;11.77;47.62;100143.25;5080083;27;46405;-68
2023/04/22 01:58:29;;;;;;;;;18.67;18.00;;;;;11.68;48.30;100120.31;5080080;27;45478;-70
2023/04/22 02:00:55;;;;;;;;;23.67;22.33;;;;;11.49;48.20;100113.47;5079684;27;45388;-70
2023/04/22 02:03:20;;;;;;;;;22.33;21.00;;;;;11.40;48.21;100097.63;5061839;27;45479;-70
2023/04/22 02:05:45;;;;;;;;;25.33;22.67;;;;;10.66;48.61;99956.59;5079643;28;45482;-70
2023/04/22 02:08:11;;;;;;;;;25.00;22.67;;;;;11.25;48.94;100053.06;5079864;28;45326;-71
2023/04/22 02:10:36;;;;;;;;;25.33;20.67;;;;;11.12;49.64;100041.25;5079496;28;45268;-70
2023/04/22 02:13:01;;;;;;;;;27.67;23.00;;;;;11.36;49.29;100073.19;5080134;28;45473;-70
2023/04/22 02:15:27;;;;;;;;;22.33;20.33;;;;;11.16;49.58;100043.41;5079449;27;45345;-70
2023/04/22 02:17:52;;;;;;;;;18.67;18.67;;;;;11.50;49.69;100114.28;5078908;27;45186;-71
2023/04/22 02:20:17;;;;;;;;;20.67;20.67;;;;;11.50;49.99;100101.00;5061391;28;45547;-69
2023/04/22 02:22:43;;;;;;;;;27.33;25.00;;;;;11.44;51.44;100093.69;5079868;28;45478;-70
2023/04/22 02:25:11;;;;;;;;;25.33;22.00;;;;;11.33;51.47;100086.00;5061561;28;47838;-70
2023/04/22 02:27:36;;;;;;;;;25.33;22.33;;;;;10.78;51.55;100007.59;5079754;28;45371;-70
2023/04/22 02:30:02;;;;;;;;;28.00;25.67;;;;;11.49;51.16;100118.78;5079273;28;45296;-70
2023/04/22 02:32:28;;;;;;;;;32.67;28.67;;;;;11.42;51.64;100101.81;5078962;27;45507;-70
2023/04/22 02:34:53;;;;;;;;;26.67;25.67;;;;;11.51;51.18;100095.50;5078731;28;45666;-71
2023/04/22 02:37:19;;;;;;;;;25.67;25.33;;;;;11.30;51.60;100046.41;5079380;27;45558;-69
2023/04/22 02:39:45;;;;;;;;;26.33;25.33;;;;;11.69;51.50;100107.81;5061370;28;45463;-70
2023/04/22 02:42:10;;;;;;;;;26.33;25.33;;;;;11.71;52.19;100103.97;5063024;28;45638;-70
2023/04/22 02:44:35;;;;;;;;;29.67;28.00;;;;;11.45;53.23;100074.03;5079348;28;46181;-70
2023/04/22 02:47:02;;;;;;;;;22.67;22.67;;;;;11.51;52.78;100073.38;5060751;27;45312;-71
2023/04/22 02:49:28;;;;;;;;;30.00;29.67;;;;;11.67;52.99;100094.69;5079193;28;45217;-70
2023/04/22 02:51:53;;;;;;;;;31.33;28.67;;;;;11.45;53.32;100058.06;5079208;27;45602;-70
2023/04/22 02:54:18;;;;;;;;;25.00;23.67;;;;;11.67;53.07;100092.00;5078816;27;45733;-70
2023/04/22 02:56:44;;;;;;;;;26.33;23.33;;;;;11.50;53.22;100066.38;5079649;28;45915;-70
2023/04/22 02:59:10;;;;;;;;;21.33;21.00;;;;;11.52;53.57;100091.00;5079557;28;45185;-71
2023/04/22 03:01:35;;;;;;;;;24.67;24.67;;;;;11.57;53.21;100094.81;5078927;27;45304;-71
2023/04/22 03:04:01;;;;;;;;;25.00;24.67;;;;;10.76;53.54;99942.31;5078889;27;45684;-70
2023/04/22 03:06:26;;;;;;;;;22.67;22.67;;;;;11.63;53.41;100077.38;5078791;28;45402;-71
2023/04/22 03:08:51;;;;;;;;;25.67;23.33;;;;;11.76;54.42;100082.19;5060550;28;45390;-72
2023/04/22 03:11:16;;;;;;;;;31.33;26.67;;;;;11.04;54.21;99964.94;5079168;28;45446;-70
2023/04/22 03:13:42;;;;;;;;;30.33;30.00;;;;;11.47;53.87;100050.75;5078068;27;63300;-71
2023/04/22 03:16:08;;;;;;;;;29.33;27.00;;;;;11.70;54.37;100070.38;5078709;27;45387;-70
2023/04/22 03:18:33;;;;;;;;;26.67;24.33;;;;;11.73;54.14;100062.03;5078895;28;45430;-71
2023/04/22 03:20:59;;;;;;;;;29.33;28.00;;;;;11.75;54.57;100054.72;5078872;28;45531;-71
2023/04/22 03:23:25;;;;;;;;;25.33;24.33;;;;;11.69;54.30;100038.59;5078573;27;46928;-71
2023/04/22 03:25:50;;;;;;;;;27.67;27.67;;;;;11.69;54.81;100028.78;5078348;28;45553;-69
2023/04/22 03:28:16;;;;;;;;;32.33;28.33;;;;;11.74;54.70;100042.41;5078651;28;45477;-70
2023/04/22 03:30:41;;;;;;;;;26.67;24.33;;;;;11.75;54.74;100036.06;5076905;28;45414;-70
2023/04/22 03:33:06;;;;;;;;;30.00;27.33;;;;;10.97;54.87;99916.88;5078205;28;46606;-69
2023/04/22 03:35:32;;;;;;;;;30.33;27.00;;;;;11.74;55.08;100047.72;5078339;28;45249;-69
2023/04/22 03:37:57;;;;;;;;;26.00;24.00;;;;;11.77;55.00;100052.72;5078367;28;45312;-69
2023/04/22 03:40:22;;;;;;;;;34.67;30.00;;;;;11.79;55.02;100048.06;5078364;28;45343;-71
2023/04/22 03:42:48;;;;;;;;;28.00;25.00;;;;;11.68;55.43;100042.25;5078211;27;45711;-70
2023/04/22 03:45:13;;;;;;;;;35.00;29.33;;;;;11.34;55.24;99987.38;5078159;28;45486;-72
2023/04/22 03:47:38;;;;;;;;;26.67;26.00;;;;;11.57;55.55;100024.78;5078109;28;45920;-71
2023/04/22 03:50:04;;;;;;;;;29.33;27.00;;;;;11.75;55.56;100049.38;5077827;27;46323;-70
2023/04/22 03:52:29;;;;;;;;;30.67;29.67;;;;;11.72;56.48;100039.06;5078048;28;47408;-69
2023/04/22 03:54:55;;;;;;;;;28.00;28.00;;;;;11.61;56.34;100036.75;5077370;28;56387;-72
2023/04/22 03:57:20;;;;;;;;;32.00;29.00;;;;;11.57;56.78;100024.78;5059996;28;45380;-70
2023/04/22 03:59:45;;;;;;;;;30.67;30.00;;;;;11.48;57.34;100004.50;5059654;28;45300;-70
2023/04/22 04:02:11;;;;;;;;;32.33;30.33;;;;;11.45;57.27;100002.19;5076473;27;67285;-70
2023/04/22 04:04:36;;;;;;;;;30.67;29.00;;;;;11.49;57.11;100030.13;5059367;28;45402;-70
2023/04/22 04:07:02;;;;;;;;;32.00;29.67;;;;;10.95;57.28;99952.63;5078005;27;45335;-70
2023/04/22 04:09:27;;;;;;;;;28.00;24.67;;;;;11.50;56.75;100055.72;5077751;28;45306;-70
2023/04/22 04:11:52;;;;;;;;;29.33;27.00;;;;;11.41;57.16;100030.09;5059523;28;48324;-70
2023/04/22 04:14:18;;;;;;;;;34.33;31.00;;;;;11.55;57.02;100026.78;5077679;28;45485;-69
2023/04/22 04:16:43;;;;;;;;;31.67;30.67;;;;;11.49;58.27;100019.47;5077299;28;55047;-70
2023/04/22 04:19:09;;;;;;;;;29.67;29.67;;;;;11.01;58.76;99941.31;5077924;28;45257;-71
2023/04/22 04:21:35;;;;;;;;;29.67;28.33;;;;;11.33;59.79;99979.56;5077830;28;46566;-70
2023/04/22 04:24:01;;;;;;;;;33.33;31.00;;;;;11.12;60.29;99962.28;5078058;28;45359;-70
2023/04/22 04:26:27;;;;;;;;;30.33;25.33;;;;;10.34;61.32;99852.88;5078459;28;45299;-70
2023/04/22 04:28:52;;;;;;;;;32.00;30.67;;;;;11.01;60.82;99969.72;5077804;27;45473;-71
2023/04/22 04:31:18;;;;;;;;;25.00;22.33;;;;;10.88;60.82;99906.41;5077178;28;45723;-70
2023/04/22 04:33:43;;;;;;;;;29.00;27.67;;;;;11.14;61.08;99964.75;5059277;28;45210;-70
2023/04/22 04:36:09;;;;;;;;;34.33;30.00;;;;;11.19;61.15;99971.22;5077472;28;45763;-69
2023/04/22 04:38:34;;;;;;;;;36.67;32.67;;;;;11.12;60.71;99977.41;5075987;28;45345;-71
2023/04/22 04:41:00;;;;;;;;;34.67;32.67;;;;;10.84;60.85;99932.53;5075067;27;47066;-69
2023/04/22 04:43:28;;;;;;;;;38.33;34.00;;;;;11.38;60.33;99993.19;5076886;28;45309;-71
2023/04/22 04:45:53;;;;;;;;;34.00;30.00;;;;;11.20;61.62;99943.63;5077003;28;45353;-69
2023/04/22 04:48:19;;;;;;;;;34.67;32.33;;;;;11.19;63.03;99949.94;5059082;28;45565;-71
2023/04/22 04:50:45;;;;;;;;;39.00;34.67;;;;;10.95;62.88;99936.66;5076862;28;52331;-71
2023/04/22 04:53:11;;;;;;;;;36.00;33.00;;;;;11.30;63.47;99979.91;5077127;28;45270;-72
2023/04/22 04:55:37;;;;;;;;;42.00;34.00;;;;;11.46;62.90;99995.84;5076551;28;45317;-69
2023/04/22 04:58:02;;;;;;;;;34.67;31.67;;;;;11.18;63.00;99923.50;5076088;27;45640;-69
2023/04/22 05:00:27;;;;;;;;;33.00;31.00;;;;;11.48;64.90;99940.63;5076798;28;46199;-68
2023/04/22 05:02:53;;;;;;;;;31.00;30.67;;;;;11.11;65.61;99912.72;5076808;28;45298;-71
2023/04/22 05:05:18;;;;;;;;;40.33;34.00;;;;;11.18;65.86;99927.00;5077214;28;45674;-69
2023/04/22 05:07:43;;;;;;;;;40.67;33.33;;;;;11.31;65.60;99941.63;5059473;28;45565;-71
2023/04/22 05:10:10;;;;;;;;;43.00;35.67;;;;;11.31;66.39;99939.81;5076956;28;45585;-71
2023/04/22 05:12:35;;;;;;;;;33.33;31.00;;;;;11.06;66.76;99904.41;5077032;27;45709;-70
2023/04/22 05:15:00;;;;;;;;;38.00;34.00;;;;;11.25;66.59;99943.97;5077165;27;45748;-70
2023/04/22 05:17:26;;;;;;;;;36.67;33.33;;;;;11.19;66.96;99965.91;5077772;28;45465;-71
2023/04/22 05:19:51;;;;;;;;;38.67;32.67;;;;;11.28;67.65;99991.53;5058688;28;47532;-72
2023/04/22 05:22:17;;;;;;;;;38.33;35.00;;;;;11.26;66.21;99976.75;5076395;27;56181;-70
2023/04/22 05:24:42;;;;;;;;;24.33;23.33;;;;;11.03;66.52;99960.63;5076690;27;45376;-70
2023/04/22 05:27:08;;;;;;;;;43.67;36.00;;;;;11.11;67.29;99987.22;5076933;28;45376;-71
2023/04/22 05:29:34;;;;;;;;;32.33;29.67;;;;;11.14;67.64;99976.22;5057886;27;48828;-70
2023/04/22 05:31:59;;;;;;;;;45.33;34.67;;;;;11.11;67.87;99965.94;5058415;28;45367;-70
2023/04/22 05:34:25;;;;;;;;;43.33;35.67;;;;;10.97;68.37;99959.44;5077024;28;45284;-71
2023/04/22 05:36:50;;;;;;;;;39.33;34.33;;;;;11.07;68.66;100004.50;5077098;27;45525;-70
2023/04/22 05:39:16;;;;;;;;;36.33;33.00;;;;;11.04;68.75;100028.78;5076738;27;45983;-71
2023/04/22 05:41:41;;;;;;;;;40.33;34.00;;;;;11.16;69.08;100026.59;5075928;27;58887;-68
2023/04/22 05:44:06;;;;;;;;;37.67;33.67;;;;;11.17;69.69;100044.22;5076681;28;45205;-70
2023/04/22 05:46:32;;;;;;;;;36.33;32.00;;;;;10.59;69.70;99938.78;5076714;28;45527;-69
2023/04/22 05:48:57;;;;;;;;;38.33;34.00;;;;;11.25;70.37;100025.63;5076382;28;46324;-70
2023/04/22 05:51:23;;;;;;;;;43.33;36.00;;;;;11.37;69.51;100036.75;5057709;28;63253;-70
2023/04/22 05:53:49;;;;;;;;;44.33;36.00;;;;;11.35;70.25;99990.84;5078811;28;45285;-71
2023/04/22 05:56:15;;;;;;;;;46.33;37.00;;;;;11.19;70.86;99973.91;5080241;28;45304;-70
2023/04/22 05:58:40;;;;;;;;;37.67;33.33;;;;;11.32;70.07;100009.81;5079577;27;46196;-71
2023/04/22 06:01:06;;;;;;;;;37.67;33.33;;;;;11.34;70.39;99998.00;5079906;28;45544;-71
2023/04/22 06:03:31;;;;;;;;;43.67;36.00;;;;;11.29;70.33;99997.69;5079910;27;45478;-70
2023/04/22 06:05:56;;;;;;;;;39.67;33.00;;;;;11.38;71.12;100017.97;5080520;27;45297;-70
2023/04/22 06:08:22;;;;;;;;;41.00;35.67;;;;;11.41;71.59;100025.63;5062606;28;47735;-71
2023/04/22 06:10:47;;;;;;;;;40.00;33.33;;;;;11.22;70.99;99984.22;5060968;28;45445;-70
2023/04/22 06:13:12;;;;;;;;;35.00;33.00;;;;;11.15;70.81;99988.53;5061668;27;45325;-70
2023/04/22 06:15:38;;;;;;;;;42.33;33.33;;;;;11.44;71.67;100021.81;5080094;28;45385;-70
2023/04/22 06:18:03;;;;;;;;;40.33;33.67;;;;;10.11;71.22;99788.09;5079581;27;45775;-70
2023/04/22 06:20:31;;;;;;;;;40.00;34.67;;;;;11.05;71.06;99925.88;5079404;27;45412;-69
2023/04/22 06:22:57;;;;;;;;;38.33;34.33;;;;;11.63;70.53;100021.47;5061459;28;45493;-70
2023/04/22 06:25:22;;;;;;;;;41.33;36.00;;;;;11.51;71.38;99996.16;5079430;28;45238;-70
2023/04/22 06:27:47;;;;;;;;;39.00;35.00;;;;;11.29;71.35;99968.41;5079472;28;46381;-71
2023/04/22 06:30:13;;;;;;;;;36.67;32.00;;;;;11.66;71.79;100023.78;5078988;28;45478;-71
2023/04/22 06:32:39;;;;;;;;;36.00;33.33;;;;;11.49;71.22;100000.84;5061506;28;45223;-69
2023/04/22 06:35:05;;;;;;;;;36.67;33.33;;;;;10.98;70.81;99915.03;5061770;28;45527;-70
2023/04/22 06:37:30;;;;;;;;;37.33;33.00;;;;;11.52;71.01;100000.50;5079183;28;46633;-71
2023/04/22 06:39:56;;;;;;;;;42.33;35.00;;;;;11.57;71.98;100006.97;5079052;27;45452;-70
2023/04/22 06:42:21;;;;;;;;;35.67;33.00;;;;;11.17;71.62;99953.78;5079342;28;45387;-70
2023/04/22 06:44:46;;;;;;;;;41.00;34.00;;;;;11.65;71.92;100048.75;5079116;27;45554;-71
2023/04/22 06:47:12;;;;;;;;;33.67;31.00;;;;;11.68;72.06;100040.41;5078922;27;45773;-71
2023/04/22 06:49:38;;;;;;;;;43.00;33.00;;;;;11.72;71.59;100023.09;5078980;27;45680;-70
2023/04/22 06:52:04;;;;;;;;;41.67;34.00;;;;;10.89;71.57;99892.97;5078929;27;45841;-71
2023/04/22 06:54:30;;;;;;;;;31.33;29.67;;;;;11.23;71.70;99953.13;5060523;28;45303;-71
2023/04/22 06:56:56;;;;;;;;;35.67;33.00;;;;;11.70;71.40;100025.09;5060280;28;48041;-71
2023/04/22 06:59:21;;;;;;;;;36.67;33.00;;;;;11.74;71.71;100026.41;5078128;27;45431;-69
2023/04/22 07:01:47;;;;;;;;;32.67;29.67;;;;;11.76;71.79;100019.09;5078441;27;45529;-69
2023/04/22 07:04:12;;;;;;;;;39.50;33.50;;;;;11.91;72.29;100015.78;5078627;28;45447;-69
2023/04/22 07:06:37;;;;;;;;;38.33;34.00;;;;;11.91;71.83;100015.78;5078833;27;45524;-72
2023/04/22 07:09:03;;;;;;;;;34.67;29.00;;;;;11.82;72.14;100002.50;5078833;27;45424;-71
2023/04/22 07:11:30;;;;;;;;;40.67;34.00;;;;;11.44;72.41;99971.25;5078873;28;45285;-70
2023/04/22 07:13:55;;;;;;;;;37.00;33.33;;;;;11.61;72.87;99956.88;5079099;27;45435;-71
2023/04/22 07:16:21;;;;;;;;;32.00;28.67;;;;;11.76;72.75;99987.13;5060752;28;46558;-72
2023/04/22 07:18:46;;;;;;;;;35.33;32.67;;;;;11.89;73.05;100013.28;5078802;28;45376;-72
2023/04/22 07:21:12;;;;;;;;;33.67;31.33;;;;;11.54;72.48;99948.75;5060807;28;45377;-70
2023/04/22 07:23:37;;;;;;;;;36.67;33.67;;;;;11.80;72.74;99996.47;5079178;28;45225;-71
2023/04/22 07:26:03;;;;;;;;;41.00;34.00;;;;;11.99;72.91;100018.41;5078670;28;45488;-70
2023/04/22 07:28:28;;;;;;;;;42.00;33.67;;;;;12.05;73.44;100013.25;5059824;28;45363;-71
2023/04/22 07:30:54;;;;;;;;;40.33;35.00;;;;;11.56;73.53;99935.25;5060445;28;45313;-70
2023/04/22 07:33:19;;;;;;;;;38.67;32.33;;;;;12.08;73.66;100017.41;5078680;27;45337;-70
2023/04/22 07:35:46;;;;;;;;;43.33;38.33;;;;;11.96;73.50;99986.78;5060247;28;47271;-72
2023/04/22 07:38:11;;;;;;;;;41.67;36.00;;;;;11.61;73.11;99919.59;5060188;28;45437;-72
2023/04/22 07:40:36;;;;;;;;;34.33;32.67;;;;;12.09;73.36;99997.75;5078004;27;45299;-70
2023/04/22 07:43:02;;;;;;;;;37.00;30.33;;;;;12.24;73.75;100016.50;5078021;27;49176;-69
2023/04/22 07:45:28;;;;;;;;;35.33;32.33;;;;;12.31;72.88;100018.31;5077988;27;45853;-71
2023/04/22 07:47:53;;;;;;;;;37.00;32.67;;;;;11.46;72.59;99860.09;5078014;28;45463;-71
2023/04/22 07:50:18;;;;;;;;;39.00;34.67;;;;;12.01;72.67;99945.31;5078190;27;45368;-70
2023/04/22 07:52:44;;;;;;;;;40.33;34.33;;;;;12.32;72.03;99989.81;5075215;28;45388;-71
2023/04/22 07:55:09;;;;;;;;;39.00;31.67;;;;;12.23;72.64;99973.03;5077527;28;54212;-72
2023/04/22 07:57:37;;;;;;;;;33.33;30.00;;;;;12.41;72.87;100002.94;5078081;28;45263;-71
2023/04/22 08:00:07;;;;;;;;;36.67;32.33;;;;;12.06;73.53;99939.47;5077904;27;45519;-71
2023/04/22 08:02:32;;;;;;;;;37.33;32.33;;;;;11.54;72.90;99860.06;5078109;28;45518;-72
2023/04/22 08:04:57;;;;;;;;;36.00;32.33;;;;;11.86;73.32;99907.91;5059384;28;46206;-72
2023/04/22 08:07:23;;;;;;;;;34.67;31.00;;;;;12.56;72.88;100011.03;5059713;28;45256;-71
2023/04/22 08:09:49;;;;;;;;;31.33;30.00;;;;;12.19;73.10;99942.41;5077713;27;45589;-71
2023/04/22 08:12:14;;;;;;;;;37.00;33.00;;;;;12.31;73.64;99967.66;5059640;28;45476;-70
2023/04/22 08:14:39;;;;;;;;;37.67;31.33;;;;;12.46;74.24;99981.09;5077498;28;45911;-71
2023/04/22 08:17:05;;;;;;;;;30.33;28.67;;;;;12.61;73.94;100013.16;5076516;28;54677;-71
2023/04/22 08:19:30;;;;;;;;;37.00;31.67;;;;;12.40;74.24;99977.25;5078048;27;45225;-71
2023/04/22 08:21:56;;;;;;;;;37.33;32.67;;;;;12.69;74.39;100010.47;5059358;28;45645;-72
2023/04/22 08:24:22;;;;;;;;;33.67;30.00;;;;;12.75;74.92;100015.91;5059157;28;48654;-73
2023/04/22 08:26:47;;;;;;;;;38.67;32.67;;;;;12.72;74.12;100015.44;5077796;27;45521;-71
2023/04/22 08:29:13;;;;;;;;;34.00;30.33;;;;;12.77;74.37;100029.06;5077794;28;45295;-73
2023/04/22 08:31:38;;;;;;;;;34.33;32.00;;;;;12.78;74.59;100020.06;5059501;28;45652;-72
2023/04/22 08:34:03;;;;;;;;;37.00;31.33;;;;;12.80;74.44;100012.72;5076845;27;57377;-71
2023/04/22 08:36:30;;;;;;;;;38.00;31.00;;;;;12.86;74.32;100030.69;5059415;28;45494;-72
2023/04/22 08:38:56;;;;;;;;;38.67;31.00;;;;;12.79;74.46;100019.06;5059197;28;45317;-70
2023/04/22 08:41:25;;;;;;;;;29.67;28.00;;;;;12.79;74.66;100011.06;5077619;27;45402;-71
2023/04/22 08:43:51;;;;;;;;;35.67;32.00;;;;;12.87;74.68;100018.19;5077377;28;45693;-72
2023/04/22 08:46:20;;;;;;;;;32.00;30.67;;;;;12.87;75.64;100029.69;5077282;28;45496;-71
2023/04/22 08:48:49;;;;;;;;;39.67;35.00;;;;;12.76;75.57;100011.41;5077148;27;45340;-72
2023/04/22 08:51:16;;;;;;;;;37.33;32.00;;;;;12.82;76.08;100021.41;5077414;28;45186;-71
2023/04/22 08:53:47;;;;;;;;;36.00;31.67;;;;;12.73;76.48;99996.59;5077136;27;46409;-72
2023/04/22 08:56:13;;;;;;;;;38.00;30.67;;;;;12.85;77.79;100030.88;5077461;28;52728;-73
2023/04/22 08:58:42;;;;;;;;;36.33;32.33;;;;;12.91;77.83;100040.84;5077933;28;45491;-72
2023/04/22 09:01:09;;;;;;;;;27.67;27.67;;;;;12.95;78.10;100032.31;5059988;28;45577;-71
2023/04/22 09:03:37;;;;;;;;;33.33;30.67;;;;;12.63;78.25;99976.50;5077552;28;46436;-71
2023/04/22 09:06:04;;;;;;;;;33.33;30.67;;;;;12.79;78.97;99997.72;5077927;28;45463;-71
2023/04/22 09:08:31;;;;;;;;;32.33;30.00;;;;;12.67;78.50;99965.31;5079798;27;45432;-72
2023/04/22 09:10:57;;;;;;;;;27.33;27.33;;;;;13.18;79.14;100028.84;5077367;28;45178;-72
2023/04/22 09:13:23;;;;;;;;;33.00;31.00;;;;;13.17;78.78;100027.16;5077863;27;47171;-72
2023/04/22 09:15:51;;;;;;;;;32.33;29.33;;;;;12.94;78.35;99979.94;5077016;28;45465;-71
2023/04/22 09:18:18;;;;;;;;;28.00;26.00;;;;;13.40;78.04;100046.69;5077655;28;45230;-71
2023/04/22 09:20:46;;;;;;;;;29.00;29.00;;;;;13.42;78.05;100043.84;5078969;28;45545;-71
2023/04/22 09:23:12;;;;;;;;;29.33;29.00;;;;;13.45;78.46;100043.50;5077945;27;45482;-72
2023/04/22 09:25:37;;;;;;;;;34.00;29.00;;;;;13.39;78.66;100051.19;5077381;28;45475;-72
2023/04/22 09:28:03;;;;;;;;;27.00;27.00;;;;;13.32;78.97;100030.75;5080214;28;45740;-71
2023/04/22 09:30:35;;;;;;;;;27.67;25.67;;;;;13.46;79.30;100054.00;5080635;28;45378;-72
2023/04/22 09:33:03;;;;;;;;;31.33;27.00;;;;;13.53;78.87;100052.25;5080676;28;45949;-71
2023/04/22 09:35:36;;;;;;;;;29.67;25.67;;;;;13.44;79.19;100048.00;5080427;28;45498;-71
2023/04/22 09:38:07;;;;;;;;;26.00;21.67;;;;;13.47;78.85;100042.31;5080587;28;45395;-71
2023/04/22 09:40:34;;;;;;;;;27.00;26.00;;;;;13.40;79.22;100036.81;5061664;28;45329;-72
2023/04/22 09:43:02;;;;;;;;;29.33;25.33;;;;;13.13;79.54;99994.66;5079445;27;45555;-71
2023/04/22 09:45:33;;;;;;;;;21.33;20.33;;;;;13.38;79.62;100040.69;5080219;27;45442;-70
2023/04/22 09:48:02;;;;;;;;;21.00;19.00;;;;;13.65;79.26;100082.88;5080637;27;45235;-71
2023/04/22 09:50:28;;;;;;;;;24.00;22.00;;;;;13.70;79.30;100093.84;5080507;28;45392;-70
2023/04/22 09:52:55;;;;;;;;;15.67;15.67;;;;;13.55;79.31;100060.09;5079307;27;46462;-71
2023/04/22 09:55:23;;;;;;;;;21.33;19.33;;;;;13.33;79.06;100027.06;5079795;27;45543;-72
2023/04/22 09:57:56;;;;;;;;;20.67;19.33;;;;;13.53;79.46;100068.28;5080018;27;45236;-73
2023/04/22 10:00:29;;;;;;;;;16.67;16.67;;;;;13.73;79.58;100110.53;5080235;27;45245;-73
2023/04/22 10:02:54;;;;;;;;;18.67;18.67;;;;;13.79;79.32;100109.78;5078251;28;48021;-73
2023/04/22 10:05:20;;;;;;;;;14.33;12.67;;;;;13.86;78.94;100118.78;5079546;27;45557;-73
2023/04/22 10:07:46;;;;;;;;;17.00;17.00;;;;;13.35;78.32;100017.03;5080165;27;45378;-73
2023/04/22 10:10:13;;;;;;;;;15.67;15.67;;;;;13.90;77.62;100090.66;5080069;28;45327;-72
2023/04/22 10:12:38;;;;;;;;;15.33;13.67;;;;;13.96;77.11;100114.81;5061578;28;48514;-72
2023/04/22 10:15:05;;;;;;;;;15.33;13.67;;;;;14.02;77.13;100115.97;5061354;28;45560;-73
2023/04/22 10:17:34;;;;;;;;;12.00;11.33;;;;;14.03;77.46;100106.94;5061595;28;45203;-72
2023/04/22 10:20:03;;;;;;;;;14.00;13.00;;;;;14.06;76.79;100111.91;5080017;28;45537;-72
2023/04/22 10:22:32;;;;;;;;;17.67;17.00;;;;;13.81;77.26;100078.38;5079049;27;45458;-71
2023/04/22 10:24:57;;;;;;;;;12.33;12.33;;;;;13.38;75.74;100005.97;5060419;28;46233;-72
2023/04/22 10:27:23;;;;;;;;;16.00;13.67;;;;;13.25;75.59;99989.75;5079804;27;45444;-72
2023/04/22 10:29:48;;;;;;;;;13.00;12.00;;;;;13.83;75.47;100084.41;5079885;28;45296;-73
2023/04/22 10:32:17;;;;;;;;;11.67;11.67;;;;;14.03;75.06;100122.97;5060718;28;47887;-72
2023/04/22 10:34:45;;;;;;;;;16.33;15.00;;;;;14.10;75.51;100128.41;5061390;28;45895;-71
2023/04/22 10:37:12;;;;;;;;;11.67;11.67;;;;;14.23;74.39;100131.28;5079529;28;45327;-73
2023/04/22 10:39:40;;;;;;;;;14.33;14.33;;;;;13.35;74.80;99969.81;5060283;28;45516;-72
2023/04/22 10:42:11;;;;;;;;;15.33;15.33;;;;;13.59;73.81;100000.78;5078966;27;46319;-70
2023/04/22 10:44:59;;;;;;;;;16.00;13.00;;;;;14.35;73.94;100131.66;5061161;28;45620;-72
2023/04/22 10:47:28;;;;;;;;;12.00;12.00;;;;;14.25;72.50;100119.41;5060640;28;45501;-73
2023/04/22 10:50:26;;;;;;;;;17.33;16.33;;;;;14.36;72.19;100149.34;5079555;28;45309;-72
2023/04/22 10:52:57;;;;;;;;;18.33;15.00;;;;;14.40;72.16;100162.16;5079093;27;46667;-72
2023/04/22 10:55:23;;;;;;;;;19.00;16.33;;;;;14.20;71.87;100129.78;5061592;28;45352;-71
2023/04/22 10:57:51;;;;;;;;;18.67;18.33;;;;;14.29;72.26;100166.13;5079219;27;45344;-71
2023/04/22 11:00:27;;;;;;;;;21.67;18.67;;;;;14.35;71.85;100145.03;5079251;28;45513;-71
2023/04/22 11:02:54;;;;;;;;;18.33;18.33;;;;;14.36;71.31;100136.00;5060969;28;46725;-72
2023/04/22 11:05:22;;;;;;;;;17.00;16.00;;;;;14.06;70.87;100097.72;5078710;28;45331;-71
2023/04/22 11:07:49;;;;;;;;;18.00;16.33;;;;;14.32;70.21;100147.06;5078828;27;45340;-73